sensor_id;sensor_type;location;lat;lon;timestamp;temperature;humidity
25440;DHT22;13365;52.208;5.488;2024-01-06T00:01:38;10.30;99.90
25440;DHT22;13365;52.208;5.488;2024-01-06T00:04:05;10.00;99.90
25440;DHT22;13365;52.208;5.488;2024-01-06T00:06:31;10.20;99.90
25440;DHT22;13365;52.208;5.488;2024-01-06T00:08:57;10.20;99.90
25440;DHT22;13365;52.208;5.488;2024-01-06T00:11:22;10.20;99.90
25440;DHT22;13365;52.208;5.488;2024-01-06T00:13:48;9.80;99.90
25440;DHT22;13365;52.208;5.488;2024-01-06T00:16:17;9.90;99.90
25440;DHT22;13365;52.208;5.488;2024-01-06T00:18:44;10.10;99.90
25440;DHT22;13365;52.208;5.488;2024-01-06T00:21:09;9.80;99.90
25440;DHT22;13365;52.208;5.488;2024-01-06T00:23:35;10.10;99.90
25440;DHT22;13365;52.208;5.488;2024-01-06T00:26:01;9.90;99.90
25440;DHT22;13365;52.208;5.488;2024-01-06T00:28:27;9.90;99.90
25440;DHT22;13365;52.208;5.488;2024-01-06T00:30:53;9.90;99.90
25440;DHT22;13365;52.208;5.488;2024-01-06T00:33:18;9.70;99.90
25440;DHT22;13365;52.208;5.488;2024-01-06T00:35:44;9.40;99.90
25440;DHT22;13365;52.208;5.488;2024-01-06T00:38:10;9.60;99.90
25440;DHT22;13365;52.208;5.488;2024-01-06T00:40:35;9.80;99.90
25440;DHT22;13365;52.208;5.488;2024-01-06T00:43:01;10.20;99.90
25440;DHT22;13365;52.208;5.488;2024-01-06T00:45:26;10.20;99.90
25440;DHT22;13365;52.208;5.488;2024-01-06T00:47:52;10.20;99.90
25440;DHT22;13365;52.208;5.488;2024-01-06T00:50:18;9.80;99.90
25440;DHT22;13365;52.208;5.488;2024-01-06T00:52:44;9.50;99.90
25440;DHT22;13365;52.208;5.488;2024-01-06T00:55:10;9.50;99.90
25440;DHT22;13365;52.208;5.488;2024-01-06T00:57:35;9.40;99.90
25440;DHT22;13365;52.208;5.488;2024-01-06T01:00:03;9.50;99.90
25440;DHT22;13365;52.208;5.488;2024-01-06T01:02:28;9.40;99.90
25440;DHT22;13365;52.208;5.488;2024-01-06T01:04:54;9.40;99.90
25440;DHT22;13365;52.208;5.488;2024-01-06T01:07:20;9.40;99.90
25440;DHT22;13365;52.208;5.488;2024-01-06T01:09:45;9.20;99.90
25440;DHT22;13365;52.208;5.488;2024-01-06T01:12:11;9.20;99.90
25440;DHT22;13365;52.208;5.488;2024-01-06T01:14:36;9.30;99.90
25440;DHT22;13365;52.208;5.488;2024-01-06T01:17:02;9.20;99.90
25440;DHT22;13365;52.208;5.488;2024-01-06T01:19:28;9.30;99.90
25440;DHT22;13365;52.208;5.488;2024-01-06T01:21:53;9.10;99.90
25440;DHT22;13365;52.208;5.488;2024-01-06T01:24:23;9.10;99.90
25440;DHT22;13365;52.208;5.488;2024-01-06T01:26:49;9.00;99.90
25440;DHT22;13365;52.208;5.488;2024-01-06T01:29:18;8.90;99.90
25440;DHT22;13365;52.208;5.488;2024-01-06T01:31:46;9.00;99.90
25440;DHT22;13365;52.208;5.488;2024-01-06T01:34:11;9.30;99.90
25440;DHT22;13365;52.208;5.488;2024-01-06T01:36:37;9.30;99.90
25440;DHT22;13365;52.208;5.488;2024-01-06T01:39:02;9.20;99.90
25440;DHT22;13365;52.208;5.488;2024-01-06T01:41:28;9.20;99.90
25440;DHT22;13365;52.208;5.488;2024-01-06T01:43:54;9.30;99.90
25440;DHT22;13365;52.208;5.488;2024-01-06T01:46:32;9.20;99.90
25440;DHT22;13365;52.208;5.488;2024-01-06T01:49:00;9.30;99.90
25440;DHT22;13365;52.208;5.488;2024-01-06T01:51:30;9.40;99.90
25440;DHT22;13365;52.208;5.488;2024-01-06T01:54:03;9.30;99.90
25440;DHT22;13365;52.208;5.488;2024-01-06T01:56:31;9.50;99.90
25440;DHT22;13365;52.208;5.488;2024-01-06T01:59:05;9.40;99.90
25440;DHT22;13365;52.208;5.488;2024-01-06T02:01:31;9.20;99.90
25440;DHT22;13365;52.208;5.488;2024-01-06T02:03:58;9.20;99.90
25440;DHT22;13365;52.208;5.488;2024-01-06T02:06:24;8.80;99.90
25440;DHT22;13365;52.208;5.488;2024-01-06T02:08:50;9.10;99.90
25440;DHT22;13365;52.208;5.488;2024-01-06T02:11:15;9.20;99.90
25440;DHT22;13365;52.208;5.488;2024-01-06T02:13:41;9.60;99.90
25440;DHT22;13365;52.208;5.488;2024-01-06T02:16:07;9.90;99.90
25440;DHT22;13365;52.208;5.488;2024-01-06T02:18:33;10.00;99.90
25440;DHT22;13365;52.208;5.488;2024-01-06T02:21:00;9.80;99.90
25440;DHT22;13365;52.208;5.488;2024-01-06T02:23:27;9.80;99.90
25440;DHT22;13365;52.208;5.488;2024-01-06T02:25:53;9.70;99.90
25440;DHT22;13365;52.208;5.488;2024-01-06T02:28:18;9.40;99.90
25440;DHT22;13365;52.208;5.488;2024-01-06T02:30:44;9.60;99.90
25440;DHT22;13365;52.208;5.488;2024-01-06T02:33:09;9.70;99.90
25440;DHT22;13365;52.208;5.488;2024-01-06T02:35:35;9.50;99.90
25440;DHT22;13365;52.208;5.488;2024-01-06T02:38:01;9.60;99.90
25440;DHT22;13365;52.208;5.488;2024-01-06T02:40:27;9.70;99.90
25440;DHT22;13365;52.208;5.488;2024-01-06T02:42:53;9.80;99.90
25440;DHT22;13365;52.208;5.488;2024-01-06T02:45:18;9.50;99.90
25440;DHT22;13365;52.208;5.488;2024-01-06T02:47:44;9.40;99.90
25440;DHT22;13365;52.208;5.488;2024-01-06T02:50:09;9.50;99.90
25440;DHT22;13365;52.208;5.488;2024-01-06T02:52:35;9.40;99.90
25440;DHT22;13365;52.208;5.488;2024-01-06T02:55:01;9.40;99.90
25440;DHT22;13365;52.208;5.488;2024-01-06T02:57:30;9.60;99.90
25440;DHT22;13365;52.208;5.488;2024-01-06T02:59:56;9.60;99.90
25440;DHT22;13365;52.208;5.488;2024-01-06T03:02:22;9.50;99.90
25440;DHT22;13365;52.208;5.488;2024-01-06T03:04:47;9.40;99.90
25440;DHT22;13365;52.208;5.488;2024-01-06T03:07:15;9.50;99.90
25440;DHT22;13365;52.208;5.488;2024-01-06T03:09:42;9.50;99.90
25440;DHT22;13365;52.208;5.488;2024-01-06T03:12:08;9.50;99.90
25440;DHT22;13365;52.208;5.488;2024-01-06T03:14:37;9.20;99.90
25440;DHT22;13365;52.208;5.488;2024-01-06T03:17:03;9.50;99.90
25440;DHT22;13365;52.208;5.488;2024-01-06T03:19:32;9.70;99.90
25440;DHT22;13365;52.208;5.488;2024-01-06T03:21:58;9.70;99.90
25440;DHT22;13365;52.208;5.488;2024-01-06T03:24:25;9.60;99.90
25440;DHT22;13365;52.208;5.488;2024-01-06T03:26:51;9.40;99.90
25440;DHT22;13365;52.208;5.488;2024-01-06T03:29:16;9.50;99.90
25440;DHT22;13365;52.208;5.488;2024-01-06T03:31:45;9.40;99.90
25440;DHT22;13365;52.208;5.488;2024-01-06T03:34:11;9.30;99.90
25440;DHT22;13365;52.208;5.488;2024-01-06T03:36:37;9.50;99.90
25440;DHT22;13365;52.208;5.488;2024-01-06T03:39:03;9.50;99.90
25440;DHT22;13365;52.208;5.488;2024-01-06T03:41:29;9.50;99.90
25440;DHT22;13365;52.208;5.488;2024-01-06T03:43:55;9.50;99.90
25440;DHT22;13365;52.208;5.488;2024-01-06T03:46:21;9.50;99.90
25440;DHT22;13365;52.208;5.488;2024-01-06T03:48:46;9.50;99.90
25440;DHT22;13365;52.208;5.488;2024-01-06T03:51:12;9.40;99.90
25440;DHT22;13365;52.208;5.488;2024-01-06T03:53:38;9.40;99.90
25440;DHT22;13365;52.208;5.488;2024-01-06T03:56:04;9.50;99.90
25440;DHT22;13365;52.208;5.488;2024-01-06T03:58:29;9.30;99.90
25440;DHT22;13365;52.208;5.488;2024-01-06T04:00:55;9.20;99.90
25440;DHT22;13365;52.208;5.488;2024-01-06T04:03:21;9.20;99.90
25440;DHT22;13365;52.208;5.488;2024-01-06T04:05:46;9.00;99.90
25440;DHT22;13365;52.208;5.488;2024-01-06T04:08:12;8.90;99.90
25440;DHT22;13365;52.208;5.488;2024-01-06T04:10:37;8.80;99.90
25440;DHT22;13365;52.208;5.488;2024-01-06T04:13:04;8.50;99.90
25440;DHT22;13365;52.208;5.488;2024-01-06T04:15:29;8.00;99.90
25440;DHT22;13365;52.208;5.488;2024-01-06T04:17:55;7.90;99.90
25440;DHT22;13365;52.208;5.488;2024-01-06T04:20:21;8.10;99.90
25440;DHT22;13365;52.208;5.488;2024-01-06T04:22:46;8.20;99.90
25440;DHT22;13365;52.208;5.488;2024-01-06T04:25:12;8.10;99.90
25440;DHT22;13365;52.208;5.488;2024-01-06T04:27:37;8.00;99.90
25440;DHT22;13365;52.208;5.488;2024-01-06T04:30:03;8.10;99.90
25440;DHT22;13365;52.208;5.488;2024-01-06T04:32:29;8.10;99.90
25440;DHT22;13365;52.208;5.488;2024-01-06T04:34:54;8.20;99.90
25440;DHT22;13365;52.208;5.488;2024-01-06T04:37:22;8.10;99.90
25440;DHT22;13365;52.208;5.488;2024-01-06T04:39:47;7.90;99.90
25440;DHT22;13365;52.208;5.488;2024-01-06T04:42:13;8.00;99.90
25440;DHT22;13365;52.208;5.488;2024-01-06T04:44:40;7.90;99.90
25440;DHT22;13365;52.208;5.488;2024-01-06T04:47:05;8.10;99.90
25440;DHT22;13365;52.208;5.488;2024-01-06T04:49:31;7.70;99.90
25440;DHT22;13365;52.208;5.488;2024-01-06T04:51:57;7.70;99.90
25440;DHT22;13365;52.208;5.488;2024-01-06T04:54:22;7.60;99.90
25440;DHT22;13365;52.208;5.488;2024-01-06T04:56:49;7.50;99.90
25440;DHT22;13365;52.208;5.488;2024-01-06T04:59:15;7.60;99.90
25440;DHT22;13365;52.208;5.488;2024-01-06T05:01:40;8.00;99.90
25440;DHT22;13365;52.208;5.488;2024-01-06T05:04:06;8.00;99.90
25440;DHT22;13365;52.208;5.488;2024-01-06T05:06:32;8.10;99.90
25440;DHT22;13365;52.208;5.488;2024-01-06T05:08:57;8.40;99.90
25440;DHT22;13365;52.208;5.488;2024-01-06T05:11:23;8.30;99.90
25440;DHT22;13365;52.208;5.488;2024-01-06T05:13:48;8.30;99.90
25440;DHT22;13365;52.208;5.488;2024-01-06T05:16:14;8.50;99.90
25440;DHT22;13365;52.208;5.488;2024-01-06T05:18:39;8.50;99.90
25440;DHT22;13365;52.208;5.488;2024-01-06T05:21:05;8.30;99.90
25440;DHT22;13365;52.208;5.488;2024-01-06T05:23:31;8.20;99.90
25440;DHT22;13365;52.208;5.488;2024-01-06T05:25:56;8.20;99.90
25440;DHT22;13365;52.208;5.488;2024-01-06T05:28:22;8.20;99.90
25440;DHT22;13365;52.208;5.488;2024-01-06T05:30:47;8.40;99.90
25440;DHT22;13365;52.208;5.488;2024-01-06T05:33:13;8.60;99.90
25440;DHT22;13365;52.208;5.488;2024-01-06T05:35:39;8.80;99.90
25440;DHT22;13365;52.208;5.488;2024-01-06T05:38:05;9.00;99.90
25440;DHT22;13365;52.208;5.488;2024-01-06T05:40:30;9.00;99.90
25440;DHT22;13365;52.208;5.488;2024-01-06T05:42:56;8.70;99.90
25440;DHT22;13365;52.208;5.488;2024-01-06T05:45:22;8.30;99.90
25440;DHT22;13365;52.208;5.488;2024-01-06T05:47:48;8.20;99.90
25440;DHT22;13365;52.208;5.488;2024-01-06T05:50:15;8.30;99.90
25440;DHT22;13365;52.208;5.488;2024-01-06T05:52:41;8.20;99.90
25440;DHT22;13365;52.208;5.488;2024-01-06T05:55:07;7.90;99.90
25440;DHT22;13365;52.208;5.488;2024-01-06T05:57:33;8.00;99.90
25440;DHT22;13365;52.208;5.488;2024-01-06T05:59:59;7.70;99.90
25440;DHT22;13365;52.208;5.488;2024-01-06T06:02:25;7.60;99.90
25440;DHT22;13365;52.208;5.488;2024-01-06T06:04:51;7.90;99.90
25440;DHT22;13365;52.208;5.488;2024-01-06T06:07:18;7.60;99.90
25440;DHT22;13365;52.208;5.488;2024-01-06T06:09:43;7.40;99.90
25440;DHT22;13365;52.208;5.488;2024-01-06T06:12:13;7.30;99.90
25440;DHT22;13365;52.208;5.488;2024-01-06T06:14:39;7.30;99.90
25440;DHT22;13365;52.208;5.488;2024-01-06T06:17:05;7.30;99.90
25440;DHT22;13365;52.208;5.488;2024-01-06T06:19:31;7.30;99.90
25440;DHT22;13365;52.208;5.488;2024-01-06T06:21:57;7.00;99.90
25440;DHT22;13365;52.208;5.488;2024-01-06T06:24:22;6.90;99.90
25440;DHT22;13365;52.208;5.488;2024-01-06T06:26:48;7.10;99.90
25440;DHT22;13365;52.208;5.488;2024-01-06T06:29:13;7.00;99.90
25440;DHT22;13365;52.208;5.488;2024-01-06T06:31:39;6.80;99.90
25440;DHT22;13365;52.208;5.488;2024-01-06T06:34:05;7.10;99.90
25440;DHT22;13365;52.208;5.488;2024-01-06T06:36:30;7.10;99.90
25440;DHT22;13365;52.208;5.488;2024-01-06T06:38:56;6.90;99.90
25440;DHT22;13365;52.208;5.488;2024-01-06T06:41:24;6.80;99.90
25440;DHT22;13365;52.208;5.488;2024-01-06T06:43:50;7.10;99.90
25440;DHT22;13365;52.208;5.488;2024-01-06T06:46:16;7.40;99.90
25440;DHT22;13365;52.208;5.488;2024-01-06T06:48:41;7.40;99.90
25440;DHT22;13365;52.208;5.488;2024-01-06T06:51:07;7.30;99.90
25440;DHT22;13365;52.208;5.488;2024-01-06T06:53:32;7.30;99.90
25440;DHT22;13365;52.208;5.488;2024-01-06T06:55:58;7.20;99.90
25440;DHT22;13365;52.208;5.488;2024-01-06T06:58:24;7.20;99.90
25440;DHT22;13365;52.208;5.488;2024-01-06T07:00:49;7.20;99.90
25440;DHT22;13365;52.208;5.488;2024-01-06T07:03:15;7.40;99.90
25440;DHT22;13365;52.208;5.488;2024-01-06T07:05:41;7.50;99.90
25440;DHT22;13365;52.208;5.488;2024-01-06T07:08:06;7.70;99.90
25440;DHT22;13365;52.208;5.488;2024-01-06T07:10:32;8.00;99.90
25440;DHT22;13365;52.208;5.488;2024-01-06T07:12:58;7.90;99.90
25440;DHT22;13365;52.208;5.488;2024-01-06T07:15:23;7.70;99.90
25440;DHT22;13365;52.208;5.488;2024-01-06T07:17:49;7.30;99.90
25440;DHT22;13365;52.208;5.488;2024-01-06T07:20:14;7.30;99.90
25440;DHT22;13365;52.208;5.488;2024-01-06T07:22:40;7.10;99.90
25440;DHT22;13365;52.208;5.488;2024-01-06T07:25:06;7.10;99.90
25440;DHT22;13365;52.208;5.488;2024-01-06T07:27:32;7.30;99.90
25440;DHT22;13365;52.208;5.488;2024-01-06T07:29:58;7.40;99.90
25440;DHT22;13365;52.208;5.488;2024-01-06T07:32:24;7.50;99.90
25440;DHT22;13365;52.208;5.488;2024-01-06T07:34:50;7.80;99.90
25440;DHT22;13365;52.208;5.488;2024-01-06T07:37:15;7.90;99.90
25440;DHT22;13365;52.208;5.488;2024-01-06T07:39:41;7.60;99.90
25440;DHT22;13365;52.208;5.488;2024-01-06T07:42:07;7.30;99.90
25440;DHT22;13365;52.208;5.488;2024-01-06T07:44:33;7.50;99.90
25440;DHT22;13365;52.208;5.488;2024-01-06T07:46:59;7.50;99.90
25440;DHT22;13365;52.208;5.488;2024-01-06T07:49:24;7.40;99.90
25440;DHT22;13365;52.208;5.488;2024-01-06T07:51:50;7.30;99.90
25440;DHT22;13365;52.208;5.488;2024-01-06T07:54:16;7.40;99.90
25440;DHT22;13365;52.208;5.488;2024-01-06T07:56:41;7.30;99.90
25440;DHT22;13365;52.208;5.488;2024-01-06T07:59:09;7.50;99.90
25440;DHT22;13365;52.208;5.488;2024-01-06T08:01:35;7.50;99.90
25440;DHT22;13365;52.208;5.488;2024-01-06T08:04:07;7.50;99.90
25440;DHT22;13365;52.208;5.488;2024-01-06T08:06:32;7.60;99.90
25440;DHT22;13365;52.208;5.488;2024-01-06T08:08:58;7.50;99.90
25440;DHT22;13365;52.208;5.488;2024-01-06T08:11:25;7.10;99.90
25440;DHT22;13365;52.208;5.488;2024-01-06T08:13:50;7.10;99.90
25440;DHT22;13365;52.208;5.488;2024-01-06T08:16:16;7.20;99.90
25440;DHT22;13365;52.208;5.488;2024-01-06T08:18:42;7.30;99.90
25440;DHT22;13365;52.208;5.488;2024-01-06T08:21:08;7.50;99.90
25440;DHT22;13365;52.208;5.488;2024-01-06T08:23:33;7.30;99.90
25440;DHT22;13365;52.208;5.488;2024-01-06T08:25:59;7.10;99.90
25440;DHT22;13365;52.208;5.488;2024-01-06T08:28:26;7.00;99.90
25440;DHT22;13365;52.208;5.488;2024-01-06T08:30:51;7.10;99.90
25440;DHT22;13365;52.208;5.488;2024-01-06T08:33:17;7.40;99.90
25440;DHT22;13365;52.208;5.488;2024-01-06T08:35:43;7.40;99.90
25440;DHT22;13365;52.208;5.488;2024-01-06T08:38:09;7.40;99.90
25440;DHT22;13365;52.208;5.488;2024-01-06T08:40:35;7.20;99.90
25440;DHT22;13365;52.208;5.488;2024-01-06T08:43:01;7.50;99.90
25440;DHT22;13365;52.208;5.488;2024-01-06T08:45:27;7.30;99.90
25440;DHT22;13365;52.208;5.488;2024-01-06T08:47:53;7.30;99.90
25440;DHT22;13365;52.208;5.488;2024-01-06T08:50:19;7.10;99.90
25440;DHT22;13365;52.208;5.488;2024-01-06T08:52:44;7.10;99.90
25440;DHT22;13365;52.208;5.488;2024-01-06T08:55:10;7.30;99.90
25440;DHT22;13365;52.208;5.488;2024-01-06T08:57:35;7.00;99.90
25440;DHT22;13365;52.208;5.488;2024-01-06T09:00:03;6.60;99.90
25440;DHT22;13365;52.208;5.488;2024-01-06T09:02:32;6.70;99.90
25440;DHT22;13365;52.208;5.488;2024-01-06T09:04:58;6.80;99.90
25440;DHT22;13365;52.208;5.488;2024-01-06T09:07:23;6.90;99.90
25440;DHT22;13365;52.208;5.488;2024-01-06T09:09:49;6.90;99.90
25440;DHT22;13365;52.208;5.488;2024-01-06T09:12:14;7.20;99.90
25440;DHT22;13365;52.208;5.488;2024-01-06T09:14:40;7.30;99.90
25440;DHT22;13365;52.208;5.488;2024-01-06T09:17:06;7.50;99.90
25440;DHT22;13365;52.208;5.488;2024-01-06T09:19:31;7.50;99.90
25440;DHT22;13365;52.208;5.488;2024-01-06T09:21:57;7.70;99.90
25440;DHT22;13365;52.208;5.488;2024-01-06T09:24:22;7.70;99.90
25440;DHT22;13365;52.208;5.488;2024-01-06T09:26:48;7.60;99.90
25440;DHT22;13365;52.208;5.488;2024-01-06T09:29:16;7.40;99.90
25440;DHT22;13365;52.208;5.488;2024-01-06T09:31:41;7.20;99.90
25440;DHT22;13365;52.208;5.488;2024-01-06T09:34:09;7.30;99.90
25440;DHT22;13365;52.208;5.488;2024-01-06T09:36:35;7.30;99.90
25440;DHT22;13365;52.208;5.488;2024-01-06T09:39:01;7.30;99.90
25440;DHT22;13365;52.208;5.488;2024-01-06T09:41:27;7.50;99.90
25440;DHT22;13365;52.208;5.488;2024-01-06T09:43:52;7.60;99.90
25440;DHT22;13365;52.208;5.488;2024-01-06T09:46:24;7.60;99.90
25440;DHT22;13365;52.208;5.488;2024-01-06T09:48:55;7.70;99.90
25440;DHT22;13365;52.208;5.488;2024-01-06T09:51:22;7.60;99.90
25440;DHT22;13365;52.208;5.488;2024-01-06T09:53:56;7.70;99.90
25440;DHT22;13365;52.208;5.488;2024-01-06T09:56:24;7.90;99.90
25440;DHT22;13365;52.208;5.488;2024-01-06T09:58:50;7.80;99.90
25440;DHT22;13365;52.208;5.488;2024-01-06T10:01:17;7.90;99.90
25440;DHT22;13365;52.208;5.488;2024-01-06T10:03:43;7.90;99.90
25440;DHT22;13365;52.208;5.488;2024-01-06T10:06:11;7.60;99.90
25440;DHT22;13365;52.208;5.488;2024-01-06T10:08:37;7.60;99.90
25440;DHT22;13365;52.208;5.488;2024-01-06T10:11:06;7.50;99.90
25440;DHT22;13365;52.208;5.488;2024-01-06T10:13:35;7.50;99.90
25440;DHT22;13365;52.208;5.488;2024-01-06T10:16:00;7.60;99.90
25440;DHT22;13365;52.208;5.488;2024-01-06T10:18:27;8.10;99.90
25440;DHT22;13365;52.208;5.488;2024-01-06T10:20:55;8.20;99.90
25440;DHT22;13365;52.208;5.488;2024-01-06T10:23:23;8.00;99.90
25440;DHT22;13365;52.208;5.488;2024-01-06T10:25:52;7.90;99.90
25440;DHT22;13365;52.208;5.488;2024-01-06T10:28:18;7.80;99.90
25440;DHT22;13365;52.208;5.488;2024-01-06T10:30:48;7.60;99.90
25440;DHT22;13365;52.208;5.488;2024-01-06T10:33:13;7.50;99.90
25440;DHT22;13365;52.208;5.488;2024-01-06T10:35:39;7.60;99.90
25440;DHT22;13365;52.208;5.488;2024-01-06T10:38:06;7.40;99.90
25440;DHT22;13365;52.208;5.488;2024-01-06T10:40:32;7.50;99.90
25440;DHT22;13365;52.208;5.488;2024-01-06T10:43:00;7.50;99.90
25440;DHT22;13365;52.208;5.488;2024-01-06T10:45:27;7.70;99.90
25440;DHT22;13365;52.208;5.488;2024-01-06T10:47:53;7.50;99.90
25440;DHT22;13365;52.208;5.488;2024-01-06T10:50:20;7.50;99.90
25440;DHT22;13365;52.208;5.488;2024-01-06T10:52:47;7.80;99.90
25440;DHT22;13365;52.208;5.488;2024-01-06T10:55:15;7.80;99.90
25440;DHT22;13365;52.208;5.488;2024-01-06T10:57:43;7.60;99.90
25440;DHT22;13365;52.208;5.488;2024-01-06T11:00:10;7.60;99.90
25440;DHT22;13365;52.208;5.488;2024-01-06T11:02:37;7.70;99.90
25440;DHT22;13365;52.208;5.488;2024-01-06T11:05:03;7.70;99.90
25440;DHT22;13365;52.208;5.488;2024-01-06T11:07:33;7.70;99.90
25440;DHT22;13365;52.208;5.488;2024-01-06T11:12:24;7.80;99.90
25440;DHT22;13365;52.208;5.488;2024-01-06T11:14:52;7.90;99.90
25440;DHT22;13365;52.208;5.488;2024-01-06T11:20:14;8.00;99.90
25440;DHT22;13365;52.208;5.488;2024-01-06T11:22:39;8.20;99.90
25440;DHT22;13365;52.208;5.488;2024-01-06T11:25:06;8.60;99.90
25440;DHT22;13365;52.208;5.488;2024-01-06T11:27:33;8.80;99.90
25440;DHT22;13365;52.208;5.488;2024-01-06T11:29:59;8.50;99.90
25440;DHT22;13365;52.208;5.488;2024-01-06T11:32:28;8.30;99.90
25440;DHT22;13365;52.208;5.488;2024-01-06T11:35:04;8.10;99.90
25440;DHT22;13365;52.208;5.488;2024-01-06T11:40:21;8.20;99.90
25440;DHT22;13365;52.208;5.488;2024-01-06T11:42:52;8.20;99.90
25440;DHT22;13365;52.208;5.488;2024-01-06T11:45:21;8.20;99.90
25440;DHT22;13365;52.208;5.488;2024-01-06T11:47:48;8.40;99.90
25440;DHT22;13365;52.208;5.488;2024-01-06T11:50:14;8.20;99.90
25440;DHT22;13365;52.208;5.488;2024-01-06T11:52:40;8.10;99.90
25440;DHT22;13365;52.208;5.488;2024-01-06T11:55:07;8.00;99.90
25440;DHT22;13365;52.208;5.488;2024-01-06T11:57:36;8.00;99.90
25440;DHT22;13365;52.208;5.488;2024-01-06T12:00:01;7.90;99.90
25440;DHT22;13365;52.208;5.488;2024-01-06T12:02:29;7.80;99.90
25440;DHT22;13365;52.208;5.488;2024-01-06T12:04:55;7.80;99.90
25440;DHT22;13365;52.208;5.488;2024-01-06T12:07:21;8.00;99.90
25440;DHT22;13365;52.208;5.488;2024-01-06T12:09:48;8.20;99.90
25440;DHT22;13365;52.208;5.488;2024-01-06T12:12:18;8.30;99.90
25440;DHT22;13365;52.208;5.488;2024-01-06T12:14:46;8.30;99.90
25440;DHT22;13365;52.208;5.488;2024-01-06T12:17:13;8.40;99.90
25440;DHT22;13365;52.208;5.488;2024-01-06T12:19:40;8.60;99.90
25440;DHT22;13365;52.208;5.488;2024-01-06T12:22:13;8.40;99.90
25440;DHT22;13365;52.208;5.488;2024-01-06T12:24:39;8.40;99.90
25440;DHT22;13365;52.208;5.488;2024-01-06T12:27:07;8.20;99.90
25440;DHT22;13365;52.208;5.488;2024-01-06T12:29:33;8.30;99.90
25440;DHT22;13365;52.208;5.488;2024-01-06T12:32:02;8.20;99.90
25440;DHT22;13365;52.208;5.488;2024-01-06T12:34:28;8.20;99.90
25440;DHT22;13365;52.208;5.488;2024-01-06T12:36:54;8.40;99.90
25440;DHT22;13365;52.208;5.488;2024-01-06T12:39:27;8.30;99.90
25440;DHT22;13365;52.208;5.488;2024-01-06T12:41:54;7.80;99.90
25440;DHT22;13365;52.208;5.488;2024-01-06T12:44:21;7.70;99.90
25440;DHT22;13365;52.208;5.488;2024-01-06T12:46:47;7.60;99.90
25440;DHT22;13365;52.208;5.488;2024-01-06T12:49:13;7.60;99.90
25440;DHT22;13365;52.208;5.488;2024-01-06T12:51:39;7.60;99.90
25440;DHT22;13365;52.208;5.488;2024-01-06T12:54:05;7.70;99.90
25440;DHT22;13365;52.208;5.488;2024-01-06T12:56:30;7.70;99.90
25440;DHT22;13365;52.208;5.488;2024-01-06T12:58:56;7.80;99.90
25440;DHT22;13365;52.208;5.488;2024-01-06T13:01:22;7.90;99.90
25440;DHT22;13365;52.208;5.488;2024-01-06T13:03:48;7.90;99.90
25440;DHT22;13365;52.208;5.488;2024-01-06T13:06:13;7.90;99.90
25440;DHT22;13365;52.208;5.488;2024-01-06T13:08:41;7.70;99.90
25440;DHT22;13365;52.208;5.488;2024-01-06T13:11:07;7.70;99.90
25440;DHT22;13365;52.208;5.488;2024-01-06T13:13:33;7.70;99.90
25440;DHT22;13365;52.208;5.488;2024-01-06T13:15:59;7.50;99.90
25440;DHT22;13365;52.208;5.488;2024-01-06T13:18:27;7.40;99.90
25440;DHT22;13365;52.208;5.488;2024-01-06T13:20:53;7.50;99.90
25440;DHT22;13365;52.208;5.488;2024-01-06T13:23:19;7.50;99.90
25440;DHT22;13365;52.208;5.488;2024-01-06T13:25:45;7.30;99.90
25440;DHT22;13365;52.208;5.488;2024-01-06T13:28:12;7.40;99.90
25440;DHT22;13365;52.208;5.488;2024-01-06T13:30:37;7.60;99.90
25440;DHT22;13365;52.208;5.488;2024-01-06T13:33:04;7.40;99.90
25440;DHT22;13365;52.208;5.488;2024-01-06T13:35:30;7.20;99.90
25440;DHT22;13365;52.208;5.488;2024-01-06T13:37:56;7.40;99.90
25440;DHT22;13365;52.208;5.488;2024-01-06T13:40:23;7.40;99.90
25440;DHT22;13365;52.208;5.488;2024-01-06T13:42:49;7.10;99.90
25440;DHT22;13365;52.208;5.488;2024-01-06T13:45:16;7.00;99.90
25440;DHT22;13365;52.208;5.488;2024-01-06T13:47:42;7.10;99.90
25440;DHT22;13365;52.208;5.488;2024-01-06T13:50:13;7.20;99.90
25440;DHT22;13365;52.208;5.488;2024-01-06T13:52:39;7.20;99.90
25440;DHT22;13365;52.208;5.488;2024-01-06T13:55:05;7.40;99.90
25440;DHT22;13365;52.208;5.488;2024-01-06T13:57:32;7.60;99.90
25440;DHT22;13365;52.208;5.488;2024-01-06T13:59:57;7.80;99.90
25440;DHT22;13365;52.208;5.488;2024-01-06T14:02:24;7.50;99.90
25440;DHT22;13365;52.208;5.488;2024-01-06T14:04:50;7.30;99.90
25440;DHT22;13365;52.208;5.488;2024-01-06T14:07:16;7.30;99.90
25440;DHT22;13365;52.208;5.488;2024-01-06T14:09:45;7.60;99.90
25440;DHT22;13365;52.208;5.488;2024-01-06T14:12:11;7.80;99.90
25440;DHT22;13365;52.208;5.488;2024-01-06T14:14:37;8.10;99.90
25440;DHT22;13365;52.208;5.488;2024-01-06T14:17:02;8.10;99.90
25440;DHT22;13365;52.208;5.488;2024-01-06T14:19:28;7.60;99.90
25440;DHT22;13365;52.208;5.488;2024-01-06T14:21:54;7.50;99.90
25440;DHT22;13365;52.208;5.488;2024-01-06T14:24:19;7.30;99.90
25440;DHT22;13365;52.208;5.488;2024-01-06T14:26:50;7.40;99.90
25440;DHT22;13365;52.208;5.488;2024-01-06T14:29:16;7.60;99.90
25440;DHT22;13365;52.208;5.488;2024-01-06T14:31:45;7.50;99.90
25440;DHT22;13365;52.208;5.488;2024-01-06T14:34:11;7.60;99.90
25440;DHT22;13365;52.208;5.488;2024-01-06T14:36:36;7.20;99.90
25440;DHT22;13365;52.208;5.488;2024-01-06T14:39:02;7.30;99.90
25440;DHT22;13365;52.208;5.488;2024-01-06T14:41:31;7.20;99.90
25440;DHT22;13365;52.208;5.488;2024-01-06T14:43:57;7.30;99.90
25440;DHT22;13365;52.208;5.488;2024-01-06T14:46:24;7.10;99.90
25440;DHT22;13365;52.208;5.488;2024-01-06T14:48:49;7.20;99.90
25440;DHT22;13365;52.208;5.488;2024-01-06T14:51:15;7.30;99.90
25440;DHT22;13365;52.208;5.488;2024-01-06T14:53:40;7.50;99.90
25440;DHT22;13365;52.208;5.488;2024-01-06T14:56:06;7.70;99.90
25440;DHT22;13365;52.208;5.488;2024-01-06T14:58:31;7.80;99.90
25440;DHT22;13365;52.208;5.488;2024-01-06T15:00:57;7.80;99.90
25440;DHT22;13365;52.208;5.488;2024-01-06T15:03:27;8.00;99.90
25440;DHT22;13365;52.208;5.488;2024-01-06T15:05:53;8.10;99.90
25440;DHT22;13365;52.208;5.488;2024-01-06T15:08:18;7.80;99.90
25440;DHT22;13365;52.208;5.488;2024-01-06T15:10:44;7.80;99.90
25440;DHT22;13365;52.208;5.488;2024-01-06T15:13:10;7.70;99.90
25440;DHT22;13365;52.208;5.488;2024-01-06T15:15:35;7.60;99.90
25440;DHT22;13365;52.208;5.488;2024-01-06T15:18:02;7.90;99.90
25440;DHT22;13365;52.208;5.488;2024-01-06T15:20:31;7.90;99.90
25440;DHT22;13365;52.208;5.488;2024-01-06T15:22:56;8.10;99.90
25440;DHT22;13365;52.208;5.488;2024-01-06T15:25:22;8.20;99.90
25440;DHT22;13365;52.208;5.488;2024-01-06T15:27:47;8.30;99.90
25440;DHT22;13365;52.208;5.488;2024-01-06T15:30:13;8.00;99.90
25440;DHT22;13365;52.208;5.488;2024-01-06T15:32:41;8.10;99.90
25440;DHT22;13365;52.208;5.488;2024-01-06T15:35:08;8.10;99.90
25440;DHT22;13365;52.208;5.488;2024-01-06T15:37:35;7.90;99.90
25440;DHT22;13365;52.208;5.488;2024-01-06T15:40:02;7.60;99.90
25440;DHT22;13365;52.208;5.488;2024-01-06T15:42:27;7.70;99.90
25440;DHT22;13365;52.208;5.488;2024-01-06T15:44:54;7.70;99.90
25440;DHT22;13365;52.208;5.488;2024-01-06T15:47:19;7.90;99.90